Private Wetterstation Wechselburg
Wetterdaten: Montag, 07.12.2020
Datum Zeit Temp. +2m Bodentemp. Temp.+5cm Temp. Wind Windchill X Diff Temp. Feuchte +2m Feuchte +5cm Luftdruck Regen Wind Richtung Richtung Sonnenschein Taupunkt Windchill Windben
07.12.2020 00:00 0,9 C 5,1 C 1,6 C 2,2 C 2,2 C 1,3 C 89 % 92 % 999,7 hPa 0,0 l/m 0,3 km/h (0 Bft) S 180 0 min -0,7 C 2,2 C 0,0 km/h (0 Bft)
07.12.2020 00:05 1,0 C 5,1 C 1,7 C 2,5 C 2,5 C 1,5 C 88 % 92 % 999,7 hPa 0,0 l/m 0,2 km/h (0 Bft) SW 225 0 min -0,8 C 2,5 C 0,0 km/h (0 Bft)
07.12.2020 00:10 1,1 C 5,1 C 1,7 C 2,5 C 2,5 C 1,4 C 89 % 92 % 999,6 hPa 0,0 l/m 0,0 km/h (0 Bft) SW 225 0 min -0,5 C 2,5 C 0,0 km/h (0 Bft)
07.12.2020 00:15 1,1 C 5,1 C 1,9 C 2,7 C 2,7 C 1,6 C 89 % 92 % 999,6 hPa 0,0 l/m 0,0 km/h (0 Bft) S 180 0 min -0,5 C 2,7 C 0,0 km/h (0 Bft)
07.12.2020 00:20 1,2 C 5,0 C 2,0 C 2,9 C 2,9 C 1,7 C 89 % 92 % 999,6 hPa 0,0 l/m 0,0 km/h (0 Bft) S 180 0 min -0,4 C 2,9 C 0,0 km/h (0 Bft)
07.12.2020 00:25 1,2 C 5,0 C 2,1 C 3,2 C 3,2 C 2,0 C 89 % 92 % 999,6 hPa 0,0 l/m 0,2 km/h (0 Bft) S 180 0 min -0,4 C 3,2 C 0,0 km/h (0 Bft)
07.12.2020 00:30 1,3 C 5,0 C 2,2 C 3,4 C 3,4 C 2,1 C 88 % 93 % 999,9 hPa 0,0 l/m 0,0 km/h (0 Bft) SW 225 0 min -0,5 C 3,4 C 0,0 km/h (0 Bft)
07.12.2020 00:35 1,4 C 5,0 C 2,3 C 3,4 C 3,4 C 2,0 C 88 % 93 % 999,9 hPa 0,0 l/m 0,0 km/h (0 Bft) SW 225 0 min -0,4 C 3,4 C 0,0 km/h (0 Bft)
07.12.2020 00:40 1,4 C 5,0 C 2,3 C 3,5 C 3,5 C 2,1 C 88 % 93 % 999,9 hPa 0,0 l/m 0,0 km/h (0 Bft) O 90 0 min -0,4 C 3,5 C 0,0 km/h (0 Bft)
07.12.2020 00:45 1,6 C 5,0 C 2,5 C 4,1 C 4,1 C 2,5 C 88 % 93 % 999,9 hPa 0,0 l/m 0,8 km/h (0 Bft) NO 45 0 min -0,2 C 4,1 C 4,3 km/h (1 Bft)
07.12.2020 00:50 1,9 C 5,0 C 2,6 C 4,7 C 4,7 C 2,8 C 88 % 93 % 999,3 hPa 0,0 l/m 0,8 km/h (0 Bft) NO 45 0 min 0,1 C 4,7 C 1,8 km/h (1 Bft)
07.12.2020 00:55 2,0 C 5,0 C 2,8 C 5,5 C 5,5 C 3,5 C 88 % 92 % 999,3 hPa 0,0 l/m 1,1 km/h (1 Bft) O-NO 67 0 min 0,2 C 5,5 C 0,0 km/h (0 Bft)
07.12.2020 01:00 2,2 C 5,0 C 2,8 C 5,8 C 5,8 C 3,6 C 89 % 93 % 999,3 hPa 0,0 l/m 1,6 km/h (1 Bft) NO 45 0 min 0,6 C 5,8 C 2,4 km/h (1 Bft)
07.12.2020 01:05 2,8 C 5,1 C 3,4 C 6,5 C 6,5 C 3,7 C 89 % 92 % 999,3 hPa 0,0 l/m 2,1 km/h (1 Bft) O-NO 67 0 min 1,2 C 6,5 C 4,5 km/h (1 Bft)
07.12.2020 01:10 3,5 C 5,1 C 4,1 C 7,0 C 7,0 C 3,5 C 89 % 92 % 999,6 hPa 0,0 l/m 3,2 km/h (1 Bft) O-NO 67 0 min 1,9 C 7,0 C 3,9 km/h (1 Bft)
07.12.2020 01:15 4,3 C 5,1 C 4,7 C 7,5 C 7,5 C 3,2 C 89 % 92 % 999,6 hPa 0,0 l/m 3,5 km/h (1 Bft) NO 45 0 min 2,7 C 7,5 C 4,8 km/h (1 Bft)
07.12.2020 01:20 4,3 C 5,1 C 4,5 C 7,7 C 7,7 C 3,4 C 89 % 92 % 999,6 hPa 0,0 l/m 2,3 km/h (1 Bft) O-NO 67 0 min 2,7 C 7,7 C 1,9 km/h (1 Bft)
07.12.2020 01:25 4,1 C 5,1 C 4,3 C 7,7 C 7,7 C 3,6 C 88 % 92 % 999,6 hPa 0,0 l/m 0,5 km/h (0 Bft) N-NO 22 0 min 2,3 C 7,7 C 0,0 km/h (0 Bft)
07.12.2020 01:30 4,1 C 5,1 C 4,2 C 7,5 C 7,5 C 3,4 C 88 % 92 % 998,9 hPa 0,0 l/m 0,0 km/h (0 Bft) O-NO 67 0 min 2,3 C 7,5 C 0,0 km/h (0 Bft)
07.12.2020 01:35 4,2 C 5,1 C 4,2 C 7,4 C 7,4 C 3,2 C 88 % 92 % 998,9 hPa 0,0 l/m 0,3 km/h (0 Bft) O-NO 67 0 min 2,4 C 7,4 C 0,0 km/h (0 Bft)
07.12.2020 01:40 4,3 C 5,1 C 4,1 C 7,2 C 7,2 C 2,9 C 88 % 92 % 998,9 hPa 0,0 l/m 0,3 km/h (0 Bft) O 90 0 min 2,5 C 7,2 C 0,0 km/h (0 Bft)
07.12.2020 01:45 4,0 C 5,1 C 3,9 C 6,7 C 6,7 C 2,7 C 88 % 92 % 998,9 hPa 0,0 l/m 0,2 km/h (0 Bft) N-NO 22 0 min 2,2 C 6,7 C 0,0 km/h (0 Bft)
07.12.2020 01:50 3,9 C 5,1 C 3,8 C 6,5 C 6,5 C 2,6 C 88 % 92 % 998,9 hPa 0,0 l/m 0,3 km/h (0 Bft) NO 45 0 min 2,1 C 6,5 C 0,0 km/h (0 Bft)
07.12.2020 01:55 3,8 C 5,1 C 3,7 C 6,3 C 6,3 C 2,5 C 88 % 92 % 998,9 hPa 0,0 l/m 0,8 km/h (0 Bft) SW 225 0 min 2,0 C 6,3 C 3,7 km/h (1 Bft)
07.12.2020 02:00 3,6 C 5,1 C 3,5 C 5,7 C 5,7 C 2,1 C 88 % 92 % 998,9 hPa 0,0 l/m 1,0 km/h (0 Bft) W 270 0 min 1,8 C 5,7 C 0,0 km/h (0 Bft)
07.12.2020 02:05 3,3 C 5,1 C 3,3 C 5,3 C 5,3 C 2,0 C 88 % 92 % 998,9 hPa 0,0 l/m 1,4 km/h (1 Bft) O-NO 67 0 min 1,5 C 5,3 C 2,7 km/h (1 Bft)
07.12.2020 02:10 3,3 C 5,1 C 3,3 C 5,2 C 5,2 C 1,9 C 88 % 92 % 998,9 hPa 0,0 l/m 1,0 km/h (0 Bft) N-NO 22 0 min 1,5 C 5,2 C 0,0 km/h (0 Bft)
07.12.2020 02:15 3,5 C 5,1 C 3,7 C 5,5 C 5,5 C 2,0 C 88 % 92 % 998,9 hPa 0,0 l/m 1,9 km/h (1 Bft) O-NO 67 0 min 1,7 C 5,5 C 6,3 km/h (2 Bft)
07.12.2020 02:20 3,9 C 5,1 C 4,0 C 5,8 C 5,8 C 1,9 C 88 % 92 % 998,9 hPa 0,0 l/m 3,2 km/h (1 Bft) O-NO 67 0 min 2,1 C 5,8 C 4,5 km/h (1 Bft)
07.12.2020 02:25 4,0 C 5,1 C 4,3 C 5,9 C 5,9 C 1,9 C 88 % 92 % 998,9 hPa 0,0 l/m 3,5 km/h (1 Bft) O-NO 67 0 min 2,2 C 5,9 C 6,8 km/h (2 Bft)
07.12.2020 02:30 4,4 C 5,1 C 4,5 C 6,1 C 6,1 C 1,7 C 88 % 92 % 998,8 hPa 0,0 l/m 4,0 km/h (1 Bft) O-NO 67 0 min 2,6 C 6,1 C 11,4 km/h (2 Bft)
07.12.2020 02:35 5,2 C 5,1 C 5,2 C 6,5 C 6,5 C 1,3 C 88 % 93 % 998,8 hPa 0,0 l/m 5,3 km/h (1 Bft) O 90 0 min 3,4 C 5,7 C 5,5 km/h (1 Bft)
07.12.2020 02:40 5,5 C 5,1 C 5,4 C 7,1 C 7,1 C 1,6 C 88 % 92 % 998,8 hPa 0,0 l/m 4,5 km/h (1 Bft) O-NO 67 0 min 3,7 C 7,1 C 4,2 km/h (1 Bft)
07.12.2020 02:45 5,9 C 5,1 C 5,7 C 7,7 C 7,7 C 1,8 C 88 % 92 % 998,8 hPa 0,0 l/m 3,2 km/h (1 Bft) O-NO 67 0 min 4,1 C 7,7 C 15,4 km/h (3 Bft)
07.12.2020 02:50 6,4 C 5,1 C 5,9 C 7,6 C 7,6 C 1,2 C 88 % 92 % 998,3 hPa 0,0 l/m 4,7 km/h (1 Bft) O-NO 67 0 min 4,6 C 7,1 C 3,1 km/h (1 Bft)
07.12.2020 02:55 6,8 C 5,1 C 5,9 C 8,2 C 8,2 C 1,4 C 88 % 92 % 998,3 hPa 0,0 l/m 3,9 km/h (1 Bft) N-NO 22 0 min 5,0 C 8,2 C 7,6 km/h (2 Bft)
07.12.2020 03:00 7,2 C 5,1 C 6,2 C 8,4 C 8,4 C 1,2 C 88 % 92 % 998,3 hPa 0,0 l/m 2,4 km/h (1 Bft) N-NO 22 0 min 5,3 C 8,4 C 0,0 km/h (0 Bft)
07.12.2020 03:05 7,5 C 5,1 C 5,9 C 8,2 C 8,2 C 0,7 C 88 % 91 % 998,3 hPa 0,0 l/m 1,9 km/h (1 Bft) N-NO 22 0 min 5,6 C 8,2 C 3,1 km/h (1 Bft)
07.12.2020 03:10 7,6 C 5,1 C 6,0 C 8,1 C 8,1 C 0,5 C 87 % 92 % 998,6 hPa 0,0 l/m 0,8 km/h (0 Bft) O-NO 67 0 min 5,6 C 8,1 C 0,0 km/h (0 Bft)
07.12.2020 03:15 7,9 C 5,1 C 6,3 C 8,2 C 8,2 C 0,3 C 87 % 91 % 998,6 hPa 0,0 l/m 1,9 km/h (1 Bft) O 90 0 min 5,9 C 8,2 C 4,5 km/h (1 Bft)
07.12.2020 03:20 8,1 C 5,1 C 6,5 C 8,4 C 8,4 C 0,3 C 87 % 91 % 998,6 hPa 0,0 l/m 2,7 km/h (1 Bft) SO 135 0 min 6,1 C 8,4 C 1,8 km/h (1 Bft)
07.12.2020 03:25 8,3 C 5,1 C 6,6 C 8,5 C 8,5 C 0,2 C 87 % 91 % 998,6 hPa 0,0 l/m 1,8 km/h (1 Bft) O 90 0 min 6,3 C 8,5 C 0,0 km/h (0 Bft)
07.12.2020 03:30 8,4 C 5,1 C 6,6 C 8,5 C 8,5 C 0,1 C 86 % 91 % 998,6 hPa 0,0 l/m 1,4 km/h (1 Bft) O-NO 67 0 min 6,2 C 8,5 C 6,8 km/h (2 Bft)
07.12.2020 03:35 8,7 C 5,1 C 6,7 C 8,7 C 8,7 C 0,0 C 86 % 90 % 998,6 hPa 0,0 l/m 3,2 km/h (1 Bft) NO 45 0 min 6,5 C 8,7 C 3,4 km/h (1 Bft)
07.12.2020 03:40 8,7 C 5,1 C 6,6 C 8,7 C 8,7 C 0,0 C 85 % 90 % 998,6 hPa 0,0 l/m 3,4 km/h (1 Bft) O-NO 67 0 min 6,3 C 8,7 C 3,2 km/h (1 Bft)
07.12.2020 03:45 8,5 C 5,1 C 6,6 C 8,6 C 8,6 C 0,1 C 84 % 90 % 998,6 hPa 0,0 l/m 2,9 km/h (1 Bft) O-NO 67 0 min 6,0 C 8,6 C 3,5 km/h (1 Bft)
07.12.2020 03:50 8,5 C 5,1 C 6,7 C 8,5 C 8,5 C 0,0 C 84 % 90 % 998,4 hPa 0,0 l/m 3,7 km/h (1 Bft) NO 45 0 min 6,0 C 8,5 C 5,3 km/h (1 Bft)
07.12.2020 03:55 8,6 C 5,1 C 6,7 C 8,5 C 8,4 C 0,0 C 83 % 90 % 998,4 hPa 0,0 l/m 4,3 km/h (1 Bft) O-NO 67 0 min 5,9 C 8,4 C 5,5 km/h (1 Bft)
07.12.2020 04:00 8,7 C 5,1 C 6,8 C 8,6 C 8,3 C 0,0 C 83 % 89 % 998,4 hPa 0,0 l/m 4,5 km/h (1 Bft) O-NO 67 0 min 6,0 C 8,3 C 4,5 km/h (1 Bft)
07.12.2020 04:05 8,7 C 5,1 C 6,8 C 8,6 C 8,3 C 0,0 C 83 % 89 % 998,4 hPa 0,0 l/m 4,7 km/h (1 Bft) O-NO 67 0 min 6,0 C 7,9 C 4,8 km/h (1 Bft)
07.12.2020 04:10 8,7 C 5,2 C 6,8 C 8,5 C 8,2 C 0,0 C 82 % 89 % 998,5 hPa 0,0 l/m 4,8 km/h (1 Bft) NO 45 0 min 5,8 C 7,8 C 6,6 km/h (2 Bft)
07.12.2020 04:15 8,5 C 5,2 C 6,9 C 8,3 C 7,8 C 0,0 C 81 % 88 % 998,5 hPa 0,0 l/m 5,8 km/h (2 Bft) O-NO 67 0 min 5,4 C 7,0 C 7,2 km/h (2 Bft)
07.12.2020 04:20 8,4 C 5,2 C 6,8 C 8,2 C 7,8 C 0,0 C 81 % 88 % 998,5 hPa 0,0 l/m 5,8 km/h (2 Bft) O-NO 67 0 min 5,3 C 7,0 C 6,0 km/h (2 Bft)
07.12.2020 04:25 8,3 C 5,2 C 6,7 C 8,3 C 8,3 C 0,0 C 81 % 88 % 998,5 hPa 0,0 l/m 3,7 km/h (1 Bft) O-NO 67 0 min 5,2 C 8,3 C 5,5 km/h (1 Bft)
07.12.2020 04:30 8,3 C 5,2 C 6,6 C 8,3 C 8,3 C 0,0 C 81 % 88 % 998,6 hPa 0,0 l/m 2,6 km/h (1 Bft) O-NO 67 0 min 5,2 C 8,3 C 1,9 km/h (1 Bft)
07.12.2020 04:35 8,3 C 5,2 C 6,6 C 8,3 C 8,2 C 0,0 C 81 % 88 % 998,6 hPa 0,0 l/m 1,3 km/h (1 Bft) O-NO 67 0 min 5,2 C 8,2 C 1,6 km/h (1 Bft)
07.12.2020 04:40 8,3 C 5,2 C 6,7 C 8,3 C 8,2 C 0,0 C 82 % 88 % 998,6 hPa 0,0 l/m 0,8 km/h (0 Bft) O-NO 67 0 min 5,4 C 8,2 C 3,5 km/h (1 Bft)
07.12.2020 04:45 8,3 C 5,2 C 6,8 C 8,4 C 8,4 C 0,1 C 82 % 88 % 998,6 hPa 0,0 l/m 1,8 km/h (1 Bft) O-NO 67 0 min 5,4 C 8,4 C 1,6 km/h (1 Bft)
07.12.2020 04:50 8,4 C 5,2 C 7,0 C 8,5 C 8,5 C 0,1 C 82 % 88 % 998,6 hPa 0,0 l/m 1,6 km/h (1 Bft) N-NO 22 0 min 5,5 C 8,5 C 0,0 km/h (0 Bft)
07.12.2020 04:55 8,3 C 5,2 C 6,9 C 8,5 C 8,5 C 0,2 C 82 % 88 % 998,6 hPa 0,0 l/m 0,6 km/h (0 Bft) N-NO 22 0 min 5,4 C 8,5 C 1,8 km/h (1 Bft)
07.12.2020 05:00 8,3 C 5,2 C 6,9 C 8,5 C 8,5 C 0,2 C 82 % 88 % 998,6 hPa 0,0 l/m 0,5 km/h (0 Bft) O-NO 67 0 min 5,4 C 8,5 C 0,0 km/h (0 Bft)
07.12.2020 05:05 8,3 C 5,2 C 7,0 C 8,5 C 8,5 C 0,2 C 82 % 88 % 998,6 hPa 0,0 l/m 0,3 km/h (0 Bft) O-NO 67 0 min 5,4 C 8,5 C 0,0 km/h (0 Bft)
07.12.2020 05:10 8,3 C 5,2 C 7,1 C 8,5 C 8,5 C 0,2 C 82 % 88 % 999,0 hPa 0,0 l/m 0,6 km/h (0 Bft) O-NO 67 0 min 5,4 C 8,5 C 1,8 km/h (1 Bft)
07.12.2020 05:15 8,4 C 5,2 C 7,3 C 8,7 C 8,7 C 0,3 C 82 % 88 % 999,0 hPa 0,0 l/m 1,3 km/h (1 Bft) O-NO 67 0 min 5,5 C 8,7 C 2,3 km/h (1 Bft)
07.12.2020 05:20 8,4 C 5,2 C 7,3 C 8,8 C 8,8 C 0,4 C 82 % 87 % 999,0 hPa 0,0 l/m 1,3 km/h (1 Bft) O-NO 67 0 min 5,5 C 8,8 C 0,0 km/h (0 Bft)
07.12.2020 05:25 8,5 C 5,2 C 7,4 C 8,9 C 8,9 C 0,4 C 82 % 87 % 999,0 hPa 0,0 l/m 0,8 km/h (0 Bft) O 90 0 min 5,6 C 8,9 C 1,6 km/h (1 Bft)
07.12.2020 05:30 8,5 C 5,2 C 7,6 C 8,9 C 8,9 C 0,4 C 82 % 87 % 998,7 hPa 0,0 l/m 0,5 km/h (0 Bft) O 90 0 min 5,6 C 8,9 C 2,6 km/h (1 Bft)
07.12.2020 05:35 8,7 C 5,2 C 7,8 C 8,9 C 8,9 C 0,2 C 82 % 86 % 998,7 hPa 0,0 l/m 1,0 km/h (0 Bft) O 90 0 min 5,8 C 8,9 C 3,1 km/h (1 Bft)
07.12.2020 05:40 8,6 C 5,2 C 7,8 C 8,9 C 8,9 C 0,3 C 81 % 86 % 998,7 hPa 0,0 l/m 1,0 km/h (0 Bft) O 90 0 min 5,5 C 8,9 C 1,9 km/h (1 Bft)
07.12.2020 05:45 8,8 C 5,3 C 7,9 C 9,0 C 9,0 C 0,2 C 81 % 85 % 998,7 hPa 0,0 l/m 1,4 km/h (1 Bft) NO 45 0 min 5,7 C 9,0 C 0,0 km/h (0 Bft)
07.12.2020 05:50 8,8 C 5,3 C 7,9 C 9,0 C 9,0 C 0,2 C 81 % 85 % 998,6 hPa 0,0 l/m 1,4 km/h (1 Bft) O-NO 67 0 min 5,7 C 9,0 C 2,6 km/h (1 Bft)
07.12.2020 05:55 8,9 C 5,3 C 8,0 C 9,0 C 9,0 C 0,1 C 81 % 84 % 998,6 hPa 0,0 l/m 1,3 km/h (1 Bft) O 90 0 min 5,8 C 9,0 C 1,8 km/h (1 Bft)
07.12.2020 06:00 8,8 C 5,3 C 8,1 C 9,0 C 9,0 C 0,2 C 81 % 84 % 998,6 hPa 0,0 l/m 2,1 km/h (1 Bft) O-SO 112 0 min 5,7 C 9,0 C 4,5 km/h (1 Bft)
07.12.2020 06:05 8,9 C 5,3 C 8,2 C 9,1 C 9,1 C 0,2 C 81 % 83 % 998,6 hPa 0,0 l/m 2,6 km/h (1 Bft) O 90 0 min 5,8 C 9,1 C 2,4 km/h (1 Bft)
07.12.2020 06:10 9,0 C 5,3 C 8,3 C 9,1 C 9,1 C 0,1 C 80 % 83 % 998,9 hPa 0,0 l/m 2,7 km/h (1 Bft) O-NO 67 0 min 5,7 C 9,1 C 2,9 km/h (1 Bft)
07.12.2020 06:15 9,0 C 5,3 C 8,2 C 9,0 C 9,0 C 0,0 C 80 % 83 % 998,9 hPa 0,0 l/m 2,6 km/h (1 Bft) O-SO 112 0 min 5,7 C 9,0 C 2,4 km/h (1 Bft)
07.12.2020 06:20 9,0 C 5,3 C 8,2 C 9,0 C 9,0 C 0,0 C 80 % 82 % 998,9 hPa 0,0 l/m 2,7 km/h (1 Bft) O-NO 67 0 min 5,7 C 9,0 C 6,1 km/h (2 Bft)
07.12.2020 06:25 9,1 C 5,3 C 8,3 C 9,1 C 9,0 C 0,0 C 80 % 82 % 998,9 hPa 0,0 l/m 2,6 km/h (1 Bft) NO 45 0 min 5,8 C 9,0 C 3,2 km/h (1 Bft)
07.12.2020 06:30 9,1 C 5,3 C 8,3 C 9,1 C 9,0 C 0,0 C 80 % 82 % 998,9 hPa 0,0 l/m 2,4 km/h (1 Bft) O 90 0 min 5,8 C 9,0 C 0,0 km/h (0 Bft)
07.12.2020 06:35 9,1 C 5,3 C 8,3 C 9,1 C 9,1 C 0,0 C 80 % 82 % 998,9 hPa 0,0 l/m 1,9 km/h (1 Bft) O-SO 112 0 min 5,8 C 9,1 C 3,2 km/h (1 Bft)
07.12.2020 06:40 9,0 C 5,3 C 8,3 C 9,2 C 9,2 C 0,2 C 79 % 82 % 998,9 hPa 0,0 l/m 1,9 km/h (1 Bft) O-NO 67 0 min 5,6 C 9,2 C 3,7 km/h (1 Bft)
07.12.2020 06:45 9,1 C 5,4 C 8,4 C 9,2 C 9,2 C 0,1 C 80 % 82 % 998,9 hPa 0,0 l/m 2,7 km/h (1 Bft) O 90 0 min 5,8 C 9,2 C 5,5 km/h (1 Bft)
07.12.2020 06:50 9,2 C 5,4 C 8,4 C 9,3 C 9,3 C 0,1 C 79 % 82 % 999,1 hPa 0,0 l/m 2,9 km/h (1 Bft) O-NO 67 0 min 5,8 C 9,3 C 0,0 km/h (0 Bft)
07.12.2020 06:55 9,1 C 5,4 C 8,3 C 9,3 C 9,3 C 0,2 C 79 % 82 % 999,1 hPa 0,0 l/m 2,9 km/h (1 Bft) N-NO 22 0 min 5,7 C 9,3 C 4,8 km/h (1 Bft)
07.12.2020 07:00 9,2 C 5,4 C 8,4 C 9,3 C 9,3 C 0,1 C 79 % 81 % 999,1 hPa 0,0 l/m 2,7 km/h (1 Bft) O-NO 67 0 min 5,8 C 9,3 C 3,1 km/h (1 Bft)
07.12.2020 07:05 9,1 C 5,4 C 8,4 C 9,3 C 9,3 C 0,2 C 79 % 81 % 999,1 hPa 0,0 l/m 2,9 km/h (1 Bft) O-NO 67 0 min 5,7 C 9,3 C 7,7 km/h (2 Bft)
07.12.2020 07:10 9,3 C 5,4 C 8,5 C 9,4 C 9,4 C 0,1 C 79 % 81 % 999,8 hPa 0,0 l/m 2,9 km/h (1 Bft) O-NO 67 0 min 5,8 C 9,4 C 4,7 km/h (1 Bft)
07.12.2020 07:15 9,3 C 5,4 C 8,5 C 9,3 C 9,3 C 0,0 C 79 % 81 % 999,8 hPa 0,0 l/m 2,9 km/h (1 Bft) O 90 0 min 5,8 C 9,3 C 5,0 km/h (1 Bft)
07.12.2020 07:20 9,2 C 5,4 C 8,4 C 9,3 C 9,3 C 0,1 C 79 % 81 % 999,8 hPa 0,0 l/m 2,6 km/h (1 Bft) O-NO 67 0 min 5,8 C 9,3 C 2,9 km/h (1 Bft)
07.12.2020 07:25 9,2 C 5,4 C 8,4 C 9,3 C 9,3 C 0,1 C 79 % 81 % 999,8 hPa 0,0 l/m 2,4 km/h (1 Bft) O-SO 112 0 min 5,8 C 9,3 C 1,6 km/h (1 Bft)
07.12.2020 07:30 9,2 C 5,4 C 8,4 C 9,3 C 9,3 C 0,1 C 79 % 81 % 999,8 hPa 0,0 l/m 2,1 km/h (1 Bft) O-SO 112 0 min 5,8 C 9,3 C 3,2 km/h (1 Bft)
07.12.2020 07:35 9,2 C 5,3 C 8,4 C 9,2 C 9,2 C 0,0 C 79 % 81 % 999,8 hPa 0,0 l/m 1,6 km/h (1 Bft) SO 135 0 min 5,8 C 9,2 C 2,9 km/h (1 Bft)
07.12.2020 07:40 9,2 C 5,5 C 8,5 C 9,3 C 9,3 C 0,1 C 79 % 81 % 999,8 hPa 0,0 l/m 1,8 km/h (1 Bft) O-SO 112 0 min 5,8 C 9,3 C 0,0 km/h (0 Bft)
07.12.2020 07:45 9,1 C 5,5 C 8,3 C 9,2 C 9,2 C 0,1 C 79 % 82 % 999,8 hPa 0,0 l/m 1,6 km/h (1 Bft) O-NO 67 0 min 5,7 C 9,2 C 0,0 km/h (0 Bft)
07.12.2020 07:50 9,1 C 5,5 C 8,4 C 9,2 C 9,2 C 0,1 C 79 % 81 % 1000,4 hPa 0,0 l/m 1,3 km/h (1 Bft) O-NO 67 0 min 5,7 C 9,2 C 0,0 km/h (0 Bft)
07.12.2020 07:55 9,1 C 5,5 C 8,4 C 9,2 C 9,2 C 0,1 C 79 % 81 % 1000,4 hPa 0,0 l/m 1,1 km/h (1 Bft) O-NO 67 0 min 5,7 C 9,2 C 1,8 km/h (1 Bft)
07.12.2020 08:00 9,1 C 5,5 C 8,3 C 9,2 C 9,2 C 0,1 C 79 % 82 % 1000,4 hPa 0,0 l/m 0,8 km/h (0 Bft) O-NO 67 0 min 5,7 C 9,2 C 0,0 km/h (0 Bft)
07.12.2020 08:05 9,1 C 5,5 C 8,3 C 9,1 C 9,1 C 0,0 C 79 % 82 % 1000,4 hPa 0,0 l/m 0,5 km/h (0 Bft) O-NO 67 0 min 5,7 C 9,1 C 1,6 km/h (1 Bft)
07.12.2020 08:10 9,1 C 5,5 C 8,3 C 9,1 C 9,1 C 0,0 C 79 % 82 % 1000,6 hPa 0,0 l/m 0,5 km/h (0 Bft) O-NO 67 0 min 5,7 C 9,1 C 0,0 km/h (0 Bft)
07.12.2020 08:15 8,9 C 5,5 C 8,1 C 8,9 C 8,9 C 0,0 C 79 % 82 % 1000,6 hPa 0,0 l/m 0,3 km/h (0 Bft) S 180 0 min 5,5 C 8,9 C 1,9 km/h (1 Bft)
07.12.2020 08:20 8,8 C 5,5 C 7,9 C 8,9 C 8,9 C 0,1 C 79 % 82 % 1000,6 hPa 0,0 l/m 0,2 km/h (0 Bft) S 180 0 min 5,4 C 8,9 C 0,0 km/h (0 Bft)
07.12.2020 08:25 8,7 C 5,5 C 7,8 C 8,7 C 8,7 C 0,0 C 79 % 83 % 1000,6 hPa 0,0 l/m 1,4 km/h (1 Bft) N-NO 22 0 min 5,3 C 8,7 C 0,0 km/h (0 Bft)
07.12.2020 08:30 8,7 C 5,6 C 7,6 C 8,7 C 8,6 C 0,0 C 79 % 83 % 1000,6 hPa 0,0 l/m 1,9 km/h (1 Bft) O-SO 112 0 min 5,3 C 8,6 C 2,7 km/h (1 Bft)
07.12.2020 08:35 8,4 C 5,6 C 7,6 C 8,4 C 8,4 C 0,0 C 79 % 83 % 1000,6 hPa 0,0 l/m 1,4 km/h (1 Bft) SO 135 0 min 5,0 C 8,4 C 3,9 km/h (1 Bft)
07.12.2020 08:40 8,3 C 5,6 C 7,5 C 8,3 C 8,2 C 0,0 C 79 % 83 % 1000,6 hPa 0,0 l/m 1,8 km/h (1 Bft) W-SW 247 0 min 4,9 C 8,2 C 3,7 km/h (1 Bft)
07.12.2020 08:45 8,0 C 5,6 C 7,4 C 8,1 C 8,1 C 0,1 C 79 % 83 % 1000,6 hPa 0,0 l/m 3,7 km/h (1 Bft) SW 225 0 min 4,6 C 8,1 C 8,5 km/h (2 Bft)
07.12.2020 08:50 7,9 C 5,6 C 7,1 C 7,6 C 6,9 C 0,0 C 79 % 83 % 1000,9 hPa 0,0 l/m 5,8 km/h (2 Bft) SW 225 0 min 4,5 C 6,0 C 11,7 km/h (2 Bft)
07.12.2020 08:55 7,2 C 5,6 C 6,7 C 7,0 C 5,8 C 0,0 C 79 % 83 % 1000,9 hPa 0,0 l/m 7,9 km/h (2 Bft) SW 225 0 min 3,8 C 4,1 C 16,1 km/h (3 Bft)
07.12.2020 09:00 7,0 C 5,6 C 6,6 C 6,7 C 5,6 C 0,0 C 79 % 83 % 1000,9 hPa 0,0 l/m 8,2 km/h (2 Bft) S 180 0 min 3,6 C 3,8 C 4,2 km/h (1 Bft)
07.12.2020 09:05 6,7 C 5,6 C 6,3 C 6,4 C 5,2 C 0,0 C 80 % 83 % 1000,9 hPa 0,0 l/m 7,9 km/h (2 Bft) S-SO 157 0 min 3,5 C 3,4 C 18,8 km/h (3 Bft)
07.12.2020 09:10 6,7 C 5,6 C 6,2 C 6,3 C 5,4 C 0,0 C 80 % 83 % 1001,6 hPa 0,0 l/m 6,9 km/h (2 Bft) SO 135 0 min 3,5 C 3,9 C 6,9 km/h (2 Bft)
07.12.2020 09:15 6,4 C 5,6 C 6,1 C 6,2 C 5,8 C 0,0 C 80 % 83 % 1001,6 hPa 0,0 l/m 5,0 km/h (1 Bft) NW 315 0 min 3,2 C 5,0 C 8,7 km/h (2 Bft)
07.12.2020 09:20 6,4 C 5,6 C 6,0 C 6,2 C 5,7 C 0,0 C 80 % 83 % 1001,6 hPa 0,0 l/m 5,1 km/h (1 Bft) S 180 0 min 3,2 C 4,8 C 8,2 km/h (2 Bft)
07.12.2020 09:25 6,3 C 5,7 C 5,9 C 6,0 C 5,5 C 0,0 C 80 % 83 % 1001,6 hPa 0,0 l/m 5,5 km/h (1 Bft) S 180 0 min 3,1 C 4,5 C 5,3 km/h (1 Bft)
07.12.2020 09:30 6,3 C 5,7 C 5,8 C 6,1 C 5,7 C 0,0 C 80 % 83 % 1002,2 hPa 0,0 l/m 4,5 km/h (1 Bft) S-SO 157 0 min 3,1 C 5,7 C 5,1 km/h (1 Bft)
07.12.2020 09:35 6,1 C 5,7 C 5,7 C 6,0 C 5,8 C 0,0 C 80 % 83 % 1002,2 hPa 0,0 l/m 4,0 km/h (1 Bft) S 180 0 min 2,9 C 5,8 C 7,7 km/h (2 Bft)
07.12.2020 09:40 6,1 C 5,7 C 5,7 C 6,0 C 5,7 C 0,0 C 80 % 82 % 1002,2 hPa 0,0 l/m 4,3 km/h (1 Bft) S-SW 202 0 min 2,9 C 5,7 C 13,7 km/h (3 Bft)
07.12.2020 09:45 5,9 C 5,7 C 5,6 C 5,8 C 5,7 C 0,0 C 80 % 82 % 1002,2 hPa 0,0 l/m 4,3 km/h (1 Bft) S 180 0 min 2,7 C 5,7 C 4,0 km/h (1 Bft)
07.12.2020 09:50 5,9 C 5,7 C 5,5 C 5,7 C 5,4 C 0,0 C 80 % 82 % 1002,7 hPa 0,0 l/m 4,7 km/h (1 Bft) SW 225 0 min 2,7 C 4,7 C 8,4 km/h (2 Bft)
07.12.2020 09:55 5,7 C 5,7 C 5,4 C 5,6 C 5,3 C 0,0 C 80 % 81 % 1002,7 hPa 0,0 l/m 4,8 km/h (1 Bft) W-SW 247 0 min 2,5 C 4,5 C 12,2 km/h (2 Bft)
07.12.2020 10:00 5,6 C 5,7 C 5,4 C 5,4 C 5,1 C 0,0 C 79 % 81 % 1002,7 hPa 0,0 l/m 5,5 km/h (1 Bft) S 180 0 min 2,3 C 4,0 C 10,0 km/h (2 Bft)
07.12.2020 10:05 5,6 C 5,7 C 5,3 C 5,4 C 4,9 C 0,0 C 79 % 81 % 1002,7 hPa 0,0 l/m 5,3 km/h (1 Bft) SW 225 0 min 2,3 C 3,9 C 7,4 km/h (2 Bft)
07.12.2020 10:10 5,6 C 5,7 C 5,3 C 5,4 C 4,9 C 0,0 C 79 % 81 % 1003,1 hPa 0,0 l/m 5,3 km/h (1 Bft) S 180 0 min 2,3 C 3,9 C 8,2 km/h (2 Bft)
07.12.2020 10:15 5,5 C 5,7 C 5,2 C 5,2 C 4,6 C 0,0 C 79 % 81 % 1003,1 hPa 0,0 l/m 6,0 km/h (2 Bft) SW 225 0 min 2,2 C 3,3 C 7,4 km/h (2 Bft)
07.12.2020 10:20 5,4 C 5,7 C 5,2 C 5,2 C 4,9 C 0,0 C 79 % 81 % 1003,1 hPa 0,0 l/m 5,1 km/h (1 Bft) O-NO 67 0 min 2,1 C 3,9 C 5,1 km/h (1 Bft)
07.12.2020 10:25 5,5 C 5,7 C 5,3 C 5,5 C 5,4 C 0,0 C 79 % 81 % 1003,1 hPa 0,0 l/m 4,3 km/h (1 Bft) S 180 0 min 2,2 C 5,4 C 3,7 km/h (1 Bft)
07.12.2020 10:30 5,5 C 5,7 C 5,4 C 5,8 C 5,8 C 0,3 C 79 % 81 % 1003,0 hPa 0,0 l/m 3,9 km/h (1 Bft) W 270 0 min 2,2 C 5,8 C 3,7 km/h (1 Bft)
07.12.2020 10:35 5,5 C 5,7 C 5,5 C 5,7 C 5,7 C 0,2 C 79 % 80 % 1003,0 hPa 0,0 l/m 4,5 km/h (1 Bft) S-SW 202 0 min 2,2 C 5,7 C 6,1 km/h (2 Bft)
07.12.2020 10:40 5,6 C 5,7 C 5,6 C 5,6 C 5,5 C 0,0 C 78 % 79 % 1003,0 hPa 0,0 l/m 5,0 km/h (1 Bft) NW 315 0 min 2,1 C 4,7 C 5,0 km/h (1 Bft)
07.12.2020 10:45 5,7 C 5,7 C 5,6 C 5,6 C 5,5 C 0,0 C 78 % 78 % 1003,0 hPa 0,0 l/m 5,5 km/h (1 Bft) O-SO 112 0 min 2,2 C 4,5 C 9,2 km/h (2 Bft)
07.12.2020 10:50 5,6 C 5,7 C 5,6 C 5,6 C 5,6 C 0,0 C 78 % 78 % 1003,2 hPa 0,0 l/m 5,1 km/h (1 Bft) NW 315 0 min 2,1 C 4,7 C 3,4 km/h (1 Bft)
07.12.2020 10:55 5,7 C 5,7 C 5,6 C 5,6 C 5,4 C 0,0 C 77 % 78 % 1003,2 hPa 0,0 l/m 5,6 km/h (1 Bft) W-SW 247 0 min 2,0 C 4,3 C 9,8 km/h (2 Bft)
07.12.2020 11:00 5,7 C 5,7 C 5,6 C 5,7 C 5,6 C 0,0 C 77 % 78 % 1003,2 hPa 0,0 l/m 5,1 km/h (1 Bft) NO 45 0 min 2,0 C 4,7 C 2,4 km/h (1 Bft)
07.12.2020 11:05 5,6 C 5,7 C 5,5 C 5,5 C 5,3 C 0,0 C 77 % 78 % 1003,2 hPa 0,0 l/m 5,6 km/h (1 Bft) O-SO 112 0 min 1,9 C 4,2 C 6,6 km/h (2 Bft)
07.12.2020 11:10 5,6 C 5,7 C 5,5 C 5,5 C 5,3 C 0,0 C 77 % 78 % 1003,9 hPa 0,0 l/m 5,6 km/h (1 Bft) O-SO 112 0 min 1,9 C 4,2 C 6,6 km/h (2 Bft)
07.12.2020 11:15 5,6 C 5,7 C 5,5 C 5,5 C 5,2 C 0,0 C 77 % 78 % 1003,9 hPa 0,0 l/m 5,8 km/h (2 Bft) O-SO 112 0 min 1,9 C 4,0 C 10,6 km/h (2 Bft)
07.12.2020 11:20 5,6 C 5,7 C 5,6 C 5,5 C 5,4 C 0,0 C 77 % 78 % 1003,9 hPa 0,0 l/m 5,1 km/h (1 Bft) S-SO 157 0 min 1,9 C 4,5 C 8,4 km/h (2 Bft)
07.12.2020 11:25 5,6 C 5,7 C 5,7 C 5,7 C 5,7 C 0,1 C 77 % 78 % 1003,9 hPa 0,0 l/m 5,0 km/h (1 Bft) SO 135 0 min 1,9 C 4,9 C 6,0 km/h (2 Bft)
07.12.2020 11:30 5,6 C 5,7 C 5,8 C 6,0 C 6,0 C 0,4 C 77 % 78 % 1003,6 hPa 0,0 l/m 5,1 km/h (1 Bft) S 180 0 min 1,9 C 5,2 C 7,2 km/h (2 Bft)
07.12.2020 11:35 5,7 C 5,7 C 5,9 C 6,3 C 6,3 C 0,6 C 77 % 78 % 1003,6 hPa 0,0 l/m 4,7 km/h (1 Bft) S-SO 157 0 min 2,0 C 5,7 C 3,1 km/h (1 Bft)
07.12.2020 11:40 5,8 C 5,7 C 5,8 C 6,4 C 6,4 C 0,6 C 76 % 78 % 1003,6 hPa 0,0 l/m 4,7 km/h (1 Bft) S-SO 157 0 min 1,9 C 5,8 C 3,9 km/h (1 Bft)
07.12.2020 11:45 5,8 C 5,7 C 5,9 C 7,1 C 7,1 C 1,3 C 77 % 78 % 1003,6 hPa 0,0 l/m 3,4 km/h (1 Bft) S-SO 157 0 min 2,1 C 7,1 C 6,1 km/h (2 Bft)
07.12.2020 11:50 5,9 C 5,7 C 6,0 C 7,2 C 7,2 C 1,3 C 76 % 77 % 1003,9 hPa 0,0 l/m 3,2 km/h (1 Bft) S-SO 157 0 min 2,0 C 7,2 C 5,3 km/h (1 Bft)
07.12.2020 11:55 6,0 C 5,7 C 6,1 C 7,4 C 7,4 C 1,4 C 76 % 77 % 1003,9 hPa 0,0 l/m 3,5 km/h (1 Bft) O-NO 67 0 min 2,1 C 7,4 C 5,0 km/h (1 Bft)
07.12.2020 12:00 6,0 C 5,7 C 6,1 C 7,5 C 7,5 C 1,5 C 76 % 76 % 1003,9 hPa 0,0 l/m 3,4 km/h (1 Bft) SW 225 0 min 2,1 C 7,5 C 6,1 km/h (2 Bft)
07.12.2020 12:05 6,1 C 5,6 C 6,1 C 6,7 C 6,7 C 0,6 C 75 % 76 % 1003,9 hPa 0,0 l/m 5,5 km/h (1 Bft) SO 135 0 min 2,0 C 5,8 C 4,8 km/h (1 Bft)
07.12.2020 12:10 6,0 C 5,6 C 6,1 C 6,3 C 6,3 C 0,3 C 75 % 76 % 1003,9 hPa 0,0 l/m 6,8 km/h (2 Bft) S 180 0 min 1,9 C 5,0 C 7,9 km/h (2 Bft)
07.12.2020 12:15 6,1 C 5,6 C 6,2 C 6,6 C 6,6 C 0,5 C 75 % 76 % 1003,9 hPa 0,0 l/m 6,3 km/h (2 Bft) SO 135 0 min 2,0 C 5,5 C 6,3 km/h (2 Bft)
07.12.2020 12:20 6,2 C 5,6 C 6,3 C 6,8 C 6,8 C 0,6 C 75 % 76 % 1003,9 hPa 0,0 l/m 6,0 km/h (2 Bft) S 180 0 min 2,1 C 5,8 C 6,3 km/h (2 Bft)
07.12.2020 12:25 6,3 C 5,7 C 6,2 C 6,8 C 6,8 C 0,5 C 75 % 76 % 1003,9 hPa 0,0 l/m 5,3 km/h (1 Bft) SO 135 0 min 2,2 C 6,0 C 4,3 km/h (1 Bft)
07.12.2020 12:30 6,3 C 5,7 C 6,2 C 7,3 C 7,3 C 1,0 C 75 % 76 % 1004,0 hPa 0,0 l/m 4,3 km/h (1 Bft) S-SW 202 0 min 2,2 C 7,3 C 4,2 km/h (1 Bft)
07.12.2020 12:35 6,4 C 5,7 C 6,3 C 7,8 C 7,8 C 1,4 C 75 % 76 % 1004,0 hPa 0,0 l/m 3,4 km/h (1 Bft) SW 225 0 min 2,3 C 7,8 C 3,5 km/h (1 Bft)
07.12.2020 12:40 6,5 C 5,7 C 6,5 C 8,1 C 8,1 C 1,6 C 75 % 77 % 1004,0 hPa 0,0 l/m 2,9 km/h (1 Bft) SO 135 0 min 2,4 C 8,1 C 5,0 km/h (1 Bft)
07.12.2020 12:45 6,7 C 5,7 C 6,5 C 8,2 C 8,2 C 1,5 C 75 % 76 % 1004,0 hPa 0,0 l/m 2,6 km/h (1 Bft) O-SO 112 0 min 2,6 C 8,2 C 4,7 km/h (1 Bft)
07.12.2020 12:50 6,7 C 5,7 C 6,4 C 8,3 C 8,3 C 1,6 C 75 % 76 % 1003,9 hPa 0,0 l/m 2,6 km/h (1 Bft) W-SW 247 0 min 2,6 C 8,3 C 3,1 km/h (1 Bft)
07.12.2020 12:55 6,7 C 5,7 C 6,4 C 8,6 C 8,6 C 1,9 C 74 % 76 % 1003,9 hPa 0,0 l/m 3,1 km/h (1 Bft) W-SW 247 0 min 2,4 C 8,6 C 6,8 km/h (2 Bft)
07.12.2020 13:00 6,8 C 5,7 C 6,4 C 8,6 C 8,6 C 1,8 C 74 % 75 % 1003,9 hPa 0,0 l/m 3,1 km/h (1 Bft) NW 315 0 min 2,5 C 8,6 C 1,9 km/h (1 Bft)
07.12.2020 13:05 6,8 C 5,7 C 6,4 C 8,2 C 8,2 C 1,4 C 73 % 75 % 1003,9 hPa 0,0 l/m 4,2 km/h (1 Bft) SO 135 0 min 2,3 C 8,2 C 4,3 km/h (1 Bft)
07.12.2020 13:10 6,9 C 5,7 C 6,4 C 8,2 C 8,2 C 1,3 C 73 % 75 % 1004,1 hPa 0,0 l/m 4,2 km/h (1 Bft) S 180 0 min 2,4 C 8,2 C 2,1 km/h (1 Bft)
07.12.2020 13:15 7,1 C 5,7 C 6,5 C 8,6 C 8,6 C 1,5 C 73 % 75 % 1004,1 hPa 0,0 l/m 3,9 km/h (1 Bft) S-SO 157 0 min 2,6 C 8,6 C 12,4 km/h (3 Bft)
07.12.2020 13:20 7,1 C 5,7 C 6,6 C 8,7 C 8,7 C 1,6 C 73 % 75 % 1004,1 hPa 0,0 l/m 3,7 km/h (1 Bft) NW 315 0 min 2,6 C 8,7 C 3,7 km/h (1 Bft)
07.12.2020 13:25 7,2 C 5,7 C 6,5 C 8,8 C 8,8 C 1,6 C 73 % 75 % 1004,1 hPa 0,0 l/m 4,0 km/h (1 Bft) N 360 0 min 2,7 C 8,8 C 11,4 km/h (2 Bft)
07.12.2020 13:30 7,2 C 5,7 C 6,6 C 8,7 C 8,7 C 1,5 C 72 % 75 % 1003,9 hPa 0,0 l/m 4,0 km/h (1 Bft) S-SO 157 0 min 2,5 C 8,7 C 5,5 km/h (1 Bft)
07.12.2020 13:35 7,3 C 5,7 C 6,6 C 8,4 C 8,4 C 1,1 C 72 % 75 % 1003,9 hPa 0,0 l/m 4,7 km/h (1 Bft) W 270 0 min 2,6 C 8,0 C 4,5 km/h (1 Bft)
07.12.2020 13:40 7,2 C 5,7 C 6,6 C 8,1 C 8,1 C 0,9 C 72 % 75 % 1003,9 hPa 0,0 l/m 4,8 km/h (1 Bft) S-SW 202 0 min 2,5 C 7,7 C 5,1 km/h (1 Bft)
07.12.2020 13:45 7,1 C 5,8 C 6,5 C 8,0 C 8,0 C 0,9 C 72 % 75 % 1003,9 hPa 0,0 l/m 5,5 km/h (1 Bft) S-SO 157 0 min 2,4 C 7,3 C 3,2 km/h (1 Bft)
07.12.2020 13:50 7,0 C 5,8 C 6,4 C 8,7 C 8,7 C 1,7 C 72 % 75 % 1004,4 hPa 0,0 l/m 4,5 km/h (1 Bft) W 270 0 min 2,3 C 8,7 C 5,5 km/h (1 Bft)
07.12.2020 13:55 7,2 C 5,8 C 6,4 C 9,4 C 9,4 C 2,2 C 72 % 75 % 1004,4 hPa 0,0 l/m 3,2 km/h (1 Bft) S 180 0 min 2,5 C 9,4 C 5,5 km/h (1 Bft)
07.12.2020 14:00 7,3 C 5,8 C 6,4 C 9,2 C 9,2 C 1,9 C 72 % 75 % 1004,4 hPa 0,0 l/m 2,9 km/h (1 Bft) S-SO 157 0 min 2,6 C 9,2 C 3,7 km/h (1 Bft)
07.12.2020 14:05 7,3 C 5,8 C 6,3 C 9,2 C 9,2 C 1,9 C 71 % 75 % 1004,4 hPa 0,0 l/m 3,1 km/h (1 Bft) O-NO 67 0 min 2,4 C 9,2 C 2,4 km/h (1 Bft)
07.12.2020 14:10 7,3 C 5,8 C 6,3 C 9,6 C 9,6 C 2,3 C 71 % 75 % 1004,2 hPa 0,0 l/m 3,2 km/h (1 Bft) S-SO 157 0 min 2,4 C 9,6 C 5,3 km/h (1 Bft)
07.12.2020 14:15 7,2 C 5,8 C 6,3 C 9,2 C 9,2 C 2,0 C 71 % 74 % 1004,2 hPa 0,0 l/m 3,9 km/h (1 Bft) S 180 0 min 2,3 C 9,2 C 7,2 km/h (2 Bft)
07.12.2020 14:20 7,1 C 5,8 C 6,2 C 8,8 C 8,8 C 1,7 C 70 % 74 % 1004,2 hPa 0,0 l/m 4,5 km/h (1 Bft) S 180 0 min 2,0 C 8,8 C 5,8 km/h (2 Bft)
07.12.2020 14:25 7,1 C 5,8 C 6,0 C 8,6 C 8,6 C 1,5 C 71 % 74 % 1004,2 hPa 0,0 l/m 3,7 km/h (1 Bft) N-NO 22 0 min 2,2 C 8,6 C 4,5 km/h (1 Bft)
07.12.2020 14:30 6,9 C 5,8 C 5,9 C 8,6 C 8,6 C 1,7 C 71 % 74 % 1004,7 hPa 0,0 l/m 2,9 km/h (1 Bft) SO 135 0 min 2,0 C 8,6 C 3,1 km/h (1 Bft)
07.12.2020 14:35 6,7 C 5,8 C 5,9 C 8,6 C 8,6 C 1,9 C 70 % 74 % 1004,7 hPa 0,0 l/m 3,2 km/h (1 Bft) S-SO 157 0 min 1,6 C 8,6 C 4,0 km/h (1 Bft)
07.12.2020 14:40 6,7 C 5,8 C 5,9 C 8,4 C 8,4 C 1,7 C 71 % 74 % 1004,7 hPa 0,0 l/m 4,0 km/h (1 Bft) S-SW 202 0 min 1,8 C 8,4 C 6,1 km/h (2 Bft)
07.12.2020 14:45 6,5 C 5,8 C 5,7 C 7,9 C 7,9 C 1,4 C 71 % 74 % 1004,7 hPa 0,0 l/m 5,0 km/h (1 Bft) S-SO 157 0 min 1,6 C 7,4 C 8,7 km/h (2 Bft)
07.12.2020 14:50 6,4 C 5,8 C 5,6 C 7,7 C 7,7 C 1,3 C 71 % 74 % 1004,9 hPa 0,0 l/m 5,1 km/h (1 Bft) S-SO 157 0 min 1,5 C 7,1 C 8,0 km/h (2 Bft)
07.12.2020 14:55 6,3 C 5,8 C 5,6 C 6,7 C 6,7 C 0,4 C 71 % 74 % 1004,9 hPa 0,0 l/m 4,5 km/h (1 Bft) S-SO 157 0 min 1,4 C 6,7 C 4,7 km/h (1 Bft)
07.12.2020 15:00 6,3 C 5,8 C 5,5 C 6,3 C 6,2 C 0,0 C 72 % 75 % 1004,9 hPa 0,0 l/m 4,5 km/h (1 Bft) S 180 0 min 1,6 C 6,2 C 4,3 km/h (1 Bft)
07.12.2020 15:05 6,3 C 5,8 C 5,4 C 6,2 C 6,0 C 0,0 C 72 % 75 % 1004,9 hPa 0,0 l/m 3,9 km/h (1 Bft) SW 225 0 min 1,6 C 6,0 C 2,3 km/h (1 Bft)
07.12.2020 15:10 6,1 C 5,8 C 5,3 C 6,1 C 6,0 C 0,0 C 72 % 76 % 1005,1 hPa 0,0 l/m 2,7 km/h (1 Bft) W-SW 247 0 min 1,4 C 6,0 C 5,3 km/h (1 Bft)
07.12.2020 15:15 6,0 C 5,8 C 5,1 C 5,9 C 5,7 C 0,0 C 72 % 76 % 1005,1 hPa 0,0 l/m 1,8 km/h (1 Bft) O-SO 112 0 min 1,3 C 5,7 C 0,0 km/h (0 Bft)
07.12.2020 15:20 5,9 C 5,8 C 5,0 C 5,8 C 5,6 C 0,0 C 72 % 76 % 1005,1 hPa 0,0 l/m 1,8 km/h (1 Bft) S 180 0 min 1,2 C 5,6 C 3,1 km/h (1 Bft)
07.12.2020 15:25 5,9 C 5,9 C 4,9 C 5,7 C 5,3 C 0,0 C 73 % 77 % 1005,1 hPa 0,0 l/m 2,3 km/h (1 Bft) W-SW 247 0 min 1,4 C 5,3 C 3,9 km/h (1 Bft)
07.12.2020 15:30 5,7 C 5,9 C 4,8 C 5,5 C 5,2 C 0,0 C 73 % 77 % 1005,7 hPa 0,0 l/m 3,2 km/h (1 Bft) SW 225 0 min 1,2 C 5,2 C 4,0 km/h (1 Bft)
07.12.2020 15:35 5,6 C 5,9 C 4,6 C 5,3 C 4,6 C 0,0 C 73 % 77 % 1005,7 hPa 0,0 l/m 4,2 km/h (1 Bft) SW 225 0 min 1,2 C 4,6 C 5,5 km/h (1 Bft)
07.12.2020 15:40 5,6 C 5,9 C 4,5 C 5,3 C 4,6 C 0,0 C 74 % 77 % 1005,7 hPa 0,0 l/m 3,9 km/h (1 Bft) SW 225 0 min 1,3 C 4,6 C 4,8 km/h (1 Bft)
07.12.2020 15:45 5,5 C 5,9 C 4,3 C 5,2 C 4,7 C 0,0 C 74 % 78 % 1005,7 hPa 0,0 l/m 2,7 km/h (1 Bft) W-SW 247 0 min 1,2 C 4,7 C 0,0 km/h (0 Bft)
07.12.2020 15:50 5,3 C 5,9 C 4,1 C 5,0 C 4,4 C 0,0 C 74 % 78 % 1005,8 hPa 0,0 l/m 1,3 km/h (1 Bft) S 180 0 min 1,0 C 4,4 C 1,6 km/h (1 Bft)
07.12.2020 15:55 5,2 C 5,9 C 3,9 C 4,8 C 4,0 C 0,0 C 74 % 79 % 1005,8 hPa 0,0 l/m 0,6 km/h (0 Bft) S 180 0 min 1,0 C 4,0 C 2,3 km/h (1 Bft)
07.12.2020 16:00 5,1 C 5,9 C 3,7 C 4,6 C 3,7 C 0,0 C 74 % 79 % 1005,8 hPa 0,0 l/m 0,6 km/h (0 Bft) W-SW 247 0 min 0,9 C 3,7 C 0,0 km/h (0 Bft)
07.12.2020 16:05 4,8 C 5,9 C 3,4 C 4,3 C 3,3 C 0,0 C 74 % 79 % 1005,8 hPa 0,0 l/m 0,3 km/h (0 Bft) W-SW 247 0 min 0,6 C 3,3 C 0,0 km/h (0 Bft)
07.12.2020 16:10 4,7 C 5,9 C 3,1 C 4,1 C 2,9 C 0,0 C 74 % 79 % 1005,8 hPa 0,0 l/m 0,2 km/h (0 Bft) W-SW 247 0 min 0,5 C 2,9 C 1,8 km/h (1 Bft)
07.12.2020 16:15 4,4 C 5,9 C 3,0 C 3,9 C 2,9 C 0,0 C 75 % 80 % 1005,8 hPa 0,0 l/m 1,6 km/h (1 Bft) S 180 0 min 0,4 C 2,9 C 1,6 km/h (1 Bft)
07.12.2020 16:20 4,4 C 5,9 C 2,9 C 3,9 C 2,8 C 0,0 C 75 % 81 % 1005,8 hPa 0,0 l/m 1,6 km/h (1 Bft) S 180 0 min 0,4 C 2,8 C 0,0 km/h (0 Bft)
07.12.2020 16:25 4,3 C 5,9 C 2,3 C 3,7 C 2,5 C 0,0 C 76 % 81 % 1005,8 hPa 0,0 l/m 0,3 km/h (0 Bft) W-SW 247 0 min 0,5 C 2,5 C 0,0 km/h (0 Bft)
07.12.2020 16:30 4,0 C 5,9 C 2,0 C 3,4 C 2,2 C 0,0 C 76 % 81 % 1005,9 hPa 0,0 l/m 0,0 km/h (0 Bft) S 180 0 min 0,2 C 2,2 C 0,0 km/h (0 Bft)
07.12.2020 16:35 3,9 C 5,9 C 1,9 C 3,2 C 1,9 C 0,0 C 76 % 82 % 1005,9 hPa 0,0 l/m 0,3 km/h (0 Bft) SW 225 0 min 0,1 C 1,9 C 0,0 km/h (0 Bft)
07.12.2020 16:40 3,7 C 5,9 C 1,8 C 3,1 C 1,8 C 0,0 C 76 % 82 % 1005,9 hPa 0,0 l/m 0,5 km/h (0 Bft) S-SW 202 0 min -0,1 C 1,8 C 0,0 km/h (0 Bft)
07.12.2020 16:45 3,6 C 5,9 C 1,9 C 2,9 C 1,6 C 0,0 C 77 % 84 % 1005,9 hPa 0,0 l/m 0,2 km/h (0 Bft) O-SO 112 0 min -0,0 C 1,6 C 0,0 km/h (0 Bft)
07.12.2020 16:50 3,5 C 5,9 C 1,8 C 2,8 C 1,5 C 0,0 C 77 % 83 % 1005,9 hPa 0,0 l/m 0,2 km/h (0 Bft) O-NO 67 0 min -0,1 C 1,5 C 0,0 km/h (0 Bft)
07.12.2020 16:55 3,2 C 6,0 C 1,3 C 2,5 C 1,2 C 0,0 C 77 % 83 % 1005,9 hPa 0,0 l/m 0,0 km/h (0 Bft) O-NO 67 0 min -0,4 C 1,2 C 0,0 km/h (0 Bft)
07.12.2020 17:00 3,1 C 6,0 C 1,1 C 2,4 C 1,0 C 0,0 C 77 % 83 % 1005,9 hPa 0,0 l/m 0,0 km/h (0 Bft) O 90 0 min -0,5 C 1,0 C 0,0 km/h (0 Bft)
07.12.2020 17:05 2,8 C 6,0 C 0,9 C 2,1 C 0,7 C 0,0 C 77 % 84 % 1005,9 hPa 0,0 l/m 0,0 km/h (0 Bft) O 90 0 min -0,8 C 0,7 C 0,0 km/h (0 Bft)
07.12.2020 17:10 2,6 C 6,0 C 0,7 C 1,9 C 0,4 C 0,0 C 77 % 84 % 1005,9 hPa 0,0 l/m 0,0 km/h (0 Bft) O 90 0 min -1,0 C 0,4 C 0,0 km/h (0 Bft)
07.12.2020 17:15 2,4 C 6,1 C 0,4 C 1,7 C 0,4 C 0,0 C 78 % 85 % 1005,9 hPa 0,0 l/m 0,0 km/h (0 Bft) O 90 0 min -1,0 C 0,4 C 0,0 km/h (0 Bft)
07.12.2020 17:20 2,3 C 6,1 C 0,3 C 1,6 C 0,3 C 0,0 C 78 % 85 % 1005,9 hPa 0,0 l/m 0,0 km/h (0 Bft) O 90 0 min -1,1 C 0,3 C 0,0 km/h (0 Bft)
07.12.2020 17:25 2,0 C 6,1 C 0,1 C 1,4 C 0,2 C 0,0 C 79 % 85 % 1005,9 hPa 0,0 l/m 0,0 km/h (0 Bft) O 90 0 min -1,2 C 0,2 C 0,0 km/h (0 Bft)
07.12.2020 17:30 2,0 C 6,1 C 0,0 C 1,4 C 0,1 C 0,0 C 79 % 85 % 1006,4 hPa 0,0 l/m 0,0 km/h (0 Bft) O 90 0 min -1,2 C 0,1 C 0,0 km/h (0 Bft)
07.12.2020 17:35 1,7 C 6,1 C -0,2 C 1,1 C -0,2 C 0,0 C 79 % 85 % 1006,4 hPa 0,0 l/m 0,0 km/h (0 Bft) O 90 0 min -1,5 C -0,2 C 0,0 km/h (0 Bft)
07.12.2020 17:40 1,5 C 6,1 C -0,4 C 0,8 C -0,5 C 0,0 C 79 % 86 % 1006,4 hPa 0,0 l/m 0,0 km/h (0 Bft) O 90 0 min -1,7 C -0,5 C 0,0 km/h (0 Bft)
07.12.2020 17:45 1,3 C 6,1 C -0,5 C 0,6 C -0,7 C 0,0 C 79 % 86 % 1006,4 hPa 0,0 l/m 0,0 km/h (0 Bft) O 90 0 min -1,9 C -0,7 C 0,0 km/h (0 Bft)
07.12.2020 17:50 1,1 C 6,1 C -0,6 C 0,5 C -0,8 C 0,0 C 80 % 86 % 1006,4 hPa 0,0 l/m 0,0 km/h (0 Bft) O 90 0 min -2,0 C -0,8 C 0,0 km/h (0 Bft)
07.12.2020 17:55 0,9 C 6,1 C -0,9 C 0,3 C -0,9 C 0,0 C 80 % 86 % 1006,4 hPa 0,0 l/m 0,0 km/h (0 Bft) O 90 0 min -2,2 C -0,9 C 0,0 km/h (0 Bft)
07.12.2020 18:00 0,9 C 6,1 C -0,9 C 0,3 C -1,0 C 0,0 C 80 % 87 % 1006,4 hPa 0,0 l/m 0,0 km/h (0 Bft) O 90 0 min -2,2 C -1,0 C 0,0 km/h (0 Bft)
07.12.2020 18:05 0,8 C 6,1 C -0,9 C 0,2 C -1,0 C 0,0 C 81 % 88 % 1006,4 hPa 0,0 l/m 0,0 km/h (0 Bft) O 90 0 min -2,1 C -1,0 C 0,0 km/h (0 Bft)
07.12.2020 18:10 0,7 C 6,1 C -1,0 C 0,2 C -0,9 C 0,0 C 81 % 87 % 1007,2 hPa 0,0 l/m 0,0 km/h (0 Bft) O 90 0 min -2,2 C -0,9 C 0,0 km/h (0 Bft)
07.12.2020 18:15 0,6 C 6,1 C -1,1 C 0,1 C -1,0 C 0,0 C 82 % 88 % 1007,2 hPa 0,0 l/m 0,0 km/h (0 Bft) O 90 0 min -2,1 C -1,0 C 0,0 km/h (0 Bft)
07.12.2020 18:20 0,6 C 6,1 C -1,1 C 0,1 C -1,0 C 0,0 C 82 % 88 % 1007,2 hPa 0,0 l/m 0,0 km/h (0 Bft) O 90 0 min -2,1 C -1,0 C 0,0 km/h (0 Bft)
07.12.2020 18:25 0,4 C 6,1 C -1,1 C -0,2 C -1,3 C 0,0 C 82 % 88 % 1007,2 hPa 0,0 l/m 0,0 km/h (0 Bft) O 90 0 min -2,3 C -1,3 C 0,0 km/h (0 Bft)
07.12.2020 18:30 0,3 C 6,1 C -1,1 C -0,3 C -1,5 C 0,0 C 82 % 88 % 1006,9 hPa 0,0 l/m 0,0 km/h (0 Bft) O 90 0 min -2,4 C -1,5 C 0,0 km/h (0 Bft)
07.12.2020 18:35 0,1 C 6,1 C -1,3 C -0,6 C -1,9 C 0,0 C 82 % 88 % 1006,9 hPa 0,0 l/m 0,0 km/h (0 Bft) O 90 0 min -2,6 C -1,9 C 0,0 km/h (0 Bft)
07.12.2020 18:40 0,1 C 6,1 C -1,4 C -0,6 C -2,0 C 0,0 C 82 % 88 % 1006,9 hPa 0,0 l/m 0,0 km/h (0 Bft) O 90 0 min -2,6 C -2,0 C 0,0 km/h (0 Bft)
07.12.2020 18:45 -0,2 C 6,1 C -1,4 C -0,8 C -1,9 C 0,0 C 83 % 89 % 1006,9 hPa 0,0 l/m 0,3 km/h (0 Bft) O-NO 67 0 min -2,7 C -1,9 C 0,0 km/h (0 Bft)
07.12.2020 18:50 -0,3 C 6,0 C -1,5 C -0,8 C -1,9 C 0,0 C 83 % 89 % 1007,1 hPa 0,0 l/m 0,3 km/h (0 Bft) O-NO 67 0 min -2,8 C -1,9 C 0,0 km/h (0 Bft)
07.12.2020 18:55 -0,4 C 6,0 C -1,7 C -1,0 C -2,1 C 0,0 C 83 % 89 % 1007,1 hPa 0,0 l/m 0,0 km/h (0 Bft) O-NO 67 0 min -2,9 C -2,1 C 0,0 km/h (0 Bft)
07.12.2020 19:00 -0,5 C 6,0 C -1,7 C -1,0 C -2,1 C 0,0 C 83 % 89 % 1007,1 hPa 0,0 l/m 0,0 km/h (0 Bft) O-NO 67 0 min -3,0 C -2,1 C 0,0 km/h (0 Bft)
07.12.2020 19:05 -0,6 C 6,0 C -1,6 C -1,0 C -1,9 C 0,0 C 84 % 90 % 1007,1 hPa 0,0 l/m 0,0 km/h (0 Bft) O-NO 67 0 min -3,0 C -1,9 C 0,0 km/h (0 Bft)
07.12.2020 19:10 -0,5 C 6,0 C -1,3 C -0,9 C -1,7 C 0,0 C 84 % 90 % 1007,1 hPa 0,0 l/m 0,0 km/h (0 Bft) O-NO 67 0 min -2,9 C -1,7 C 0,0 km/h (0 Bft)
07.12.2020 19:15 -0,6 C 6,0 C -1,1 C -0,9 C -1,5 C 0,0 C 84 % 90 % 1007,1 hPa 0,0 l/m 0,0 km/h (0 Bft) O-NO 67 0 min -3,0 C -1,5 C 0,0 km/h (0 Bft)
07.12.2020 19:20 -0,5 C 6,0 C -1,0 C -0,8 C -1,4 C 0,0 C 84 % 90 % 1007,1 hPa 0,0 l/m 0,0 km/h (0 Bft) O-NO 67 0 min -2,9 C -1,4 C 0,0 km/h (0 Bft)
07.12.2020 19:25 -0,5 C 6,0 C -0,9 C -0,8 C -1,3 C 0,0 C 84 % 90 % 1007,1 hPa 0,0 l/m 0,0 km/h (0 Bft) O-NO 67 0 min -2,9 C -1,3 C 0,0 km/h (0 Bft)
07.12.2020 19:30 -0,5 C 6,0 C -0,8 C -0,7 C -1,1 C 0,0 C 85 % 90 % 1007,3 hPa 0,0 l/m 0,0 km/h (0 Bft) O-NO 67 0 min -2,7 C -1,1 C 0,0 km/h (0 Bft)
07.12.2020 19:35 -0,3 C 6,0 C -0,5 C -0,5 C -0,9 C 0,0 C 85 % 90 % 1007,3 hPa 0,0 l/m 0,0 km/h (0 Bft) O-NO 67 0 min -2,5 C -0,9 C 0,0 km/h (0 Bft)
07.12.2020 19:40 -0,4 C 6,0 C -0,4 C -0,5 C -0,7 C 0,0 C 85 % 90 % 1007,3 hPa 0,0 l/m 0,0 km/h (0 Bft) O-NO 67 0 min -2,6 C -0,7 C 0,0 km/h (0 Bft)
07.12.2020 19:45 -0,4 C 6,0 C -0,4 C -0,5 C -0,8 C 0,0 C 85 % 90 % 1007,3 hPa 0,0 l/m 0,0 km/h (0 Bft) O-NO 67 0 min -2,6 C -0,8 C 0,0 km/h (0 Bft)
07.12.2020 19:50 -0,4 C 6,0 C -0,4 C -0,6 C -0,9 C 0,0 C 85 % 90 % 1007,9 hPa 0,0 l/m 0,0 km/h (0 Bft) O-NO 67 0 min -2,6 C -0,9 C 0,0 km/h (0 Bft)
07.12.2020 19:55 -0,5 C 6,0 C -0,9 C -0,8 C -1,4 C 0,0 C 86 % 89 % 1007,9 hPa 0,0 l/m 0,0 km/h (0 Bft) O-NO 67 0 min -2,5 C -1,4 C 0,0 km/h (0 Bft)
07.12.2020 20:00 -0,5 C 6,0 C -1,0 C -0,9 C -1,6 C 0,0 C 86 % 89 % 1007,9 hPa 0,0 l/m 0,0 km/h (0 Bft) O-NO 67 0 min -2,5 C -1,6 C 0,0 km/h (0 Bft)
07.12.2020 20:05 -0,5 C 5,9 C -1,3 C -1,0 C -2,0 C 0,0 C 85 % 89 % 1007,9 hPa 0,0 l/m 0,0 km/h (0 Bft) O-NO 67 0 min -2,7 C -2,0 C 0,0 km/h (0 Bft)
07.12.2020 20:10 -0,5 C 5,9 C -1,4 C -1,0 C -2,1 C 0,0 C 85 % 89 % 1007,2 hPa 0,0 l/m 0,0 km/h (0 Bft) O-NO 67 0 min -2,7 C -2,1 C 0,0 km/h (0 Bft)
07.12.2020 20:15 -0,7 C 5,9 C -1,1 C -1,1 C -1,9 C 0,0 C 86 % 90 % 1007,2 hPa 0,0 l/m 0,0 km/h (0 Bft) O-NO 67 0 min -2,7 C -1,9 C 0,0 km/h (0 Bft)
07.12.2020 20:20 -0,7 C 5,9 C -0,9 C -1,0 C -1,6 C 0,0 C 86 % 90 % 1007,2 hPa 0,0 l/m 0,0 km/h (0 Bft) O-NO 67 0 min -2,7 C -1,6 C 0,0 km/h (0 Bft)
07.12.2020 20:25 -0,7 C 5,9 C -0,7 C -0,9 C -1,2 C 0,0 C 86 % 90 % 1007,2 hPa 0,0 l/m 0,0 km/h (0 Bft) O-NO 67 0 min -2,7 C -1,2 C 0,0 km/h (0 Bft)
07.12.2020 20:30 -0,7 C 5,9 C -0,6 C -0,8 C -1,1 C 0,0 C 86 % 90 % 1007,9 hPa 0,0 l/m 0,0 km/h (0 Bft) O-NO 67 0 min -2,7 C -1,1 C 0,0 km/h (0 Bft)
07.12.2020 20:35 -0,5 C 5,9 C -0,5 C -0,7 C -1,0 C 0,0 C 86 % 90 % 1007,9 hPa 0,0 l/m 0,0 km/h (0 Bft) O-NO 67 0 min -2,5 C -1,0 C 0,0 km/h (0 Bft)
07.12.2020 20:40 -0,6 C 5,9 C -0,6 C -0,8 C -1,1 C 0,0 C 86 % 90 % 1007,9 hPa 0,0 l/m 0,0 km/h (0 Bft) O-NO 67 0 min -2,6 C -1,1 C 0,0 km/h (0 Bft)
07.12.2020 20:45 -0,5 C 5,9 C -0,7 C -0,7 C -1,1 C 0,0 C 86 % 90 % 1007,9 hPa 0,0 l/m 0,0 km/h (0 Bft) O-NO 67 0 min -2,5 C -1,1 C 0,0 km/h (0 Bft)
07.12.2020 20:50 -0,5 C 5,9 C -0,7 C -0,7 C -1,1 C 0,0 C 86 % 90 % 1007,6 hPa 0,0 l/m 0,0 km/h (0 Bft) O-NO 67 0 min -2,5 C -1,1 C 0,0 km/h (0 Bft)
07.12.2020 20:55 -0,5 C 5,9 C -0,6 C -0,7 C -1,0 C 0,0 C 86 % 90 % 1007,6 hPa 0,0 l/m 0,0 km/h (0 Bft) O-NO 67 0 min -2,5 C -1,0 C 0,0 km/h (0 Bft)
07.12.2020 21:00 -0,5 C 5,9 C -0,5 C -0,6 C -0,9 C 0,0 C 86 % 90 % 1007,6 hPa 0,0 l/m 0,0 km/h (0 Bft) O-NO 67 0 min -2,5 C -0,9 C 0,0 km/h (0 Bft)
07.12.2020 21:05 -0,5 C 5,9 C -0,3 C -0,6 C -0,7 C 0,0 C 87 % 90 % 1007,6 hPa 0,0 l/m 0,0 km/h (0 Bft) O-NO 67 0 min -2,4 C -0,7 C 0,0 km/h (0 Bft)
07.12.2020 21:10 -0,5 C 5,9 C -0,2 C -0,5 C -0,6 C 0,0 C 87 % 90 % 1007,4 hPa 0,0 l/m 0,0 km/h (0 Bft) O-NO 67 0 min -2,4 C -0,6 C 0,0 km/h (0 Bft)
07.12.2020 21:15 -0,3 C 5,9 C -0,2 C -0,4 C -0,5 C 0,0 C 87 % 90 % 1007,4 hPa 0,0 l/m 0,0 km/h (0 Bft) O-NO 67 0 min -2,2 C -0,5 C 0,0 km/h (0 Bft)
07.12.2020 21:20 -0,4 C 5,9 C -0,1 C -0,4 C -0,5 C 0,0 C 87 % 90 % 1007,4 hPa 0,0 l/m 0,0 km/h (0 Bft) O-NO 67 0 min -2,3 C -0,5 C 0,0 km/h (0 Bft)
07.12.2020 21:25 -0,4 C 5,9 C -0,3 C -0,5 C -0,6 C 0,0 C 87 % 90 % 1007,4 hPa 0,0 l/m 0,0 km/h (0 Bft) O-NO 67 0 min -2,3 C -0,6 C 0,0 km/h (0 Bft)
07.12.2020 21:30 -0,4 C 5,9 C -0,6 C -0,6 C -0,9 C 0,0 C 87 % 90 % 1007,0 hPa 0,0 l/m 0,0 km/h (0 Bft) O-NO 67 0 min -2,3 C -0,9 C 0,0 km/h (0 Bft)
07.12.2020 21:35 -0,5 C 5,8 C -0,8 C -0,7 C -1,2 C 0,0 C 87 % 90 % 1007,0 hPa 0,0 l/m 0,0 km/h (0 Bft) O-NO 67 0 min -2,4 C -1,2 C 0,0 km/h (0 Bft)
07.12.2020 21:40 -0,5 C 5,8 C -0,8 C -0,8 C -1,3 C 0,0 C 87 % 90 % 1007,0 hPa 0,0 l/m 0,0 km/h (0 Bft) O-NO 67 0 min -2,4 C -1,3 C 0,0 km/h (0 Bft)
07.12.2020 21:45 -0,5 C 5,8 C -0,7 C -0,7 C -1,2 C 0,0 C 87 % 90 % 1007,0 hPa 0,0 l/m 0,0 km/h (0 Bft) O-NO 67 0 min -2,4 C -1,2 C 0,0 km/h (0 Bft)
07.12.2020 21:50 -0,5 C 5,8 C -0,5 C -0,7 C -1,1 C 0,0 C 87 % 90 % 1007,4 hPa 0,0 l/m 0,0 km/h (0 Bft) O-NO 67 0 min -2,4 C -1,1 C 0,0 km/h (0 Bft)
07.12.2020 21:55 -0,5 C 5,8 C -0,4 C -0,6 C -0,9 C 0,0 C 87 % 91 % 1007,4 hPa 0,0 l/m 0,0 km/h (0 Bft) O-NO 67 0 min -2,4 C -0,9 C 0,0 km/h (0 Bft)
07.12.2020 22:00 -0,5 C 5,8 C -0,4 C -0,6 C -0,8 C 0,0 C 87 % 91 % 1007,4 hPa 0,0 l/m 0,0 km/h (0 Bft) O-NO 67 0 min -2,4 C -0,8 C 0,0 km/h (0 Bft)
07.12.2020 22:05 -0,5 C 5,8 C -0,3 C -0,6 C -0,7 C 0,0 C 87 % 91 % 1007,4 hPa 0,0 l/m 0,0 km/h (0 Bft) O-NO 67 0 min -2,4 C -0,7 C 0,0 km/h (0 Bft)
07.12.2020 22:10 -0,5 C 5,8 C -0,3 C -0,6 C -0,7 C 0,0 C 87 % 91 % 1007,6 hPa 0,0 l/m 0,0 km/h (0 Bft) O-NO 67 0 min -2,4 C -0,7 C 0,0 km/h (0 Bft)
07.12.2020 22:15 -0,5 C 5,8 C -0,4 C -0,6 C -0,8 C 0,0 C 87 % 91 % 1007,6 hPa 0,0 l/m 0,0 km/h (0 Bft) O-NO 67 0 min -2,4 C -0,8 C 0,0 km/h (0 Bft)
07.12.2020 22:20 -0,5 C 5,8 C -0,4 C -0,6 C -0,8 C 0,0 C 87 % 91 % 1007,6 hPa 0,0 l/m 0,0 km/h (0 Bft) O-NO 67 0 min -2,4 C -0,8 C 0,0 km/h (0 Bft)
07.12.2020 22:25 -0,5 C 5,8 C -0,4 C -0,6 C -0,8 C 0,0 C 87 % 91 % 1007,6 hPa 0,0 l/m 0,0 km/h (0 Bft) O-NO 67 0 min -2,4 C -0,8 C 0,0 km/h (0 Bft)
07.12.2020 22:30 -0,5 C 5,8 C -0,5 C -0,6 C -0,9 C 0,0 C 87 % 90 % 1007,4 hPa 0,0 l/m 0,0 km/h (0 Bft) O-NO 67 0 min -2,4 C -0,9 C 0,0 km/h (0 Bft)
07.12.2020 22:35 -0,5 C 5,8 C -0,7 C -0,7 C -1,1 C 0,0 C 87 % 90 % 1007,4 hPa 0,0 l/m 0,0 km/h (0 Bft) O-NO 67 0 min -2,4 C -1,1 C 0,0 km/h (0 Bft)
07.12.2020 22:40 -0,5 C 5,8 C -0,8 C -0,7 C -1,1 C 0,0 C 87 % 90 % 1007,4 hPa 0,0 l/m 0,0 km/h (0 Bft) O-NO 67 0 min -2,4 C -1,1 C 0,0 km/h (0 Bft)
07.12.2020 22:45 -0,6 C 5,8 C -0,7 C -0,8 C -1,1 C 0,0 C 87 % 90 % 1007,4 hPa 0,0 l/m 0,2 km/h (0 Bft) O-NO 67 0 min -2,5 C -1,1 C 1,6 km/h (1 Bft)
07.12.2020 22:50 -0,5 C 5,8 C -0,6 C -0,7 C -1,1 C 0,0 C 87 % 90 % 1007,4 hPa 0,0 l/m 0,6 km/h (0 Bft) O-NO 67 0 min -2,4 C -1,1 C 1,6 km/h (1 Bft)
07.12.2020 22:55 -0,5 C 5,8 C -0,5 C -0,6 C -0,8 C 0,0 C 87 % 91 % 1007,4 hPa 0,0 l/m 1,0 km/h (0 Bft) O-NO 67 0 min -2,4 C -0,8 C 0,0 km/h (0 Bft)
07.12.2020 23:00 -0,5 C 5,8 C -0,5 C -0,5 C -0,6 C 0,0 C 87 % 91 % 1007,4 hPa 0,0 l/m 0,6 km/h (0 Bft) O-NO 67 0 min -2,4 C -0,6 C 0,0 km/h (0 Bft)
07.12.2020 23:05 -0,5 C 5,8 C -0,5 C -0,5 C -0,6 C 0,0 C 87 % 91 % 1007,4 hPa 0,0 l/m 0,2 km/h (0 Bft) O-NO 67 0 min -2,4 C -0,6 C 0,0 km/h (0 Bft)
07.12.2020 23:10 -0,5 C 5,7 C -0,5 C -0,5 C -0,6 C 0,0 C 87 % 91 % 1007,2 hPa 0,0 l/m 0,0 km/h (0 Bft) O-NO 67 0 min -2,4 C -0,6 C 0,0 km/h (0 Bft)
07.12.2020 23:15 -0,3 C 5,7 C -0,4 C -0,4 C -0,6 C 0,0 C 88 % 91 % 1007,2 hPa 0,0 l/m 0,3 km/h (0 Bft) O-NO 67 0 min -2,0 C -0,6 C 2,3 km/h (1 Bft)
07.12.2020 23:20 -0,4 C 5,7 C -0,3 C -0,4 C -0,5 C 0,0 C 87 % 91 % 1007,2 hPa 0,0 l/m 0,6 km/h (0 Bft) O-NO 67 0 min -2,3 C -0,5 C 0,0 km/h (0 Bft)
07.12.2020 23:25 -0,4 C 5,7 C -0,2 C -0,4 C -0,4 C 0,0 C 87 % 91 % 1007,2 hPa 0,0 l/m 0,5 km/h (0 Bft) O-NO 67 0 min -2,3 C -0,4 C 0,0 km/h (0 Bft)
07.12.2020 23:30 -0,4 C 5,7 C -0,2 C -0,3 C -0,3 C 0,1 C 88 % 91 % 1007,0 hPa 0,0 l/m 0,0 km/h (0 Bft) O-NO 67 0 min -2,1 C -0,3 C 0,0 km/h (0 Bft)
07.12.2020 23:35 -0,3 C 5,7 C -0,1 C -0,2 C -0,2 C 0,1 C 88 % 91 % 1007,0 hPa 0,0 l/m 0,0 km/h (0 Bft) O-NO 67 0 min -2,0 C -0,2 C 0,0 km/h (0 Bft)
07.12.2020 23:40 -0,4 C 5,7 C 0,0 C -0,1 C -0,1 C 0,3 C 88 % 91 % 1007,0 hPa 0,0 l/m 0,0 km/h (0 Bft) O-NO 67 0 min -2,1 C -0,1 C 0,0 km/h (0 Bft)
07.12.2020 23:45 -0,3 C 5,7 C 0,0 C -0,1 C -0,1 C 0,2 C 88 % 91 % 1007,0 hPa 0,0 l/m 0,0 km/h (0 Bft) O-NO 67 0 min -2,0 C -0,1 C 0,0 km/h (0 Bft)
07.12.2020 23:50 -0,3 C 5,7 C 0,0 C 0,0 C 0,0 C 0,3 C 88 % 91 % 1007,3 hPa 0,0 l/m 0,0 km/h (0 Bft) O-NO 67 0 min -2,0 C 0,0 C 0,0 km/h (0 Bft)
07.12.2020 23:55 -0,3 C 5,7 C 0,1 C 0,0 C 0,0 C 0,3 C 88 % 91 % 1007,3 hPa 0,0 l/m 0,0 km/h (0 Bft) O-NO 67 0 min -2,0 C 0,0 C 0,0 km/h (0 Bft)
_ Min-Zeit 20:15 00:20 18:55 20:15 18:55 03:35 14:20 14:15 02:50 - 00:10 - - - 19:00 18:55 00:00
Minimum _ -0,7 C 5,0 C -1,7 C -1,1 C -2,1 C 0,0 C 70 % 74 % 998,3 hPa - 0,0 km/h (0 Bft) - - - -3,0 C -2,1 C 0,0 km/h (0 Bft)
_ Max-Zeit 07:10 17:15 07:10 14:10 14:10 01:05 00:00 00:30 19:50 00:00 09:00 - - 00:00 03:35 14:10 09:05
Maximum _ 9,3 C 6,1 C 8,5 C 9,6 C 9,6 C 3,7 C 89 % 93 % 1007,9 hPa 0,0 l/m 8,2 km/h
S (2 Bft)
- - 0 min 6,5 C 9,6 C 18,8 km/h
S-SO (3 Bft)
Durchschnitt _ 4,6 C 5,6 C 4,0 C 4,9 C 4,7 C 0,5 C 81 % 85 % 1003,1 hPa #0,0 l/m 2,1 km/h (1 Bft) O-NO - #0 min. 1,6 C 4,5 C 2,8 km/h (1 Bft)
2020 www.wetterstation-wechselburg.de